<?xml version="1.0" encoding="utf-8"?>
<gpx xmlns:xsi="http://www.w3.org/2001/XMLSchema-instance" xmlns:xsd="http://www.w3.org/2001/XMLSchema" version="1.1" creator="Shapelink.com" xmlns="http://www.topografix.com/GPX/1/1" xmlns:gpxtpx="http://www.garmin.com/xmlschemas/TrackPointExtension/v1">
  <metadata>
    <name>Roller skiing 5.22 km, 2019-10-21</name>
    <desc></desc>
    <author><name>Per Rooth</name></author> 
    <time>2019-10-21T18:06:24Z</time>
  </metadata>
  <trk>
    <name>Roller skiing 5.22 km, 2019-10-21</name>
    <trkseg>
      <trkpt lat="56.8807720117" lon="14.740822651489">
        <ele>156</ele>
        <time>2019-10-21T18:06:24Z</time>
      </trkpt>
      <trkpt lat="56.880632704522" lon="14.74062810759">
        <ele>157.2</ele>
        <time>2019-10-21T18:06:27Z</time>
      </trkpt>
      <trkpt lat="56.880500102864" lon="14.740392743838">
        <ele>157.6</ele>
        <time>2019-10-21T18:06:30Z</time>
      </trkpt>
      <trkpt lat="56.880394574743" lon="14.740150926023">
        <ele>157.2</ele>
        <time>2019-10-21T18:06:33Z</time>
      </trkpt>
      <trkpt lat="56.880136831318" lon="14.739606270161">
        <ele>158.4</ele>
        <time>2019-10-21T18:06:40Z</time>
      </trkpt>
      <trkpt lat="56.880024513858" lon="14.739430082623">
        <ele>159.4</ele>
        <time>2019-10-21T18:06:43Z</time>
      </trkpt>
      <trkpt lat="56.879947316559" lon="14.73938171906">
        <ele>159.6</ele>
        <time>2019-10-21T18:06:45Z</time>
      </trkpt>
      <trkpt lat="56.879837178393" lon="14.739628566015">
        <ele>159.4</ele>
        <time>2019-10-21T18:06:49Z</time>
      </trkpt>
      <trkpt lat="56.879676832646" lon="14.740483016901">
        <ele>160.6</ele>
        <time>2019-10-21T18:06:58Z</time>
      </trkpt>
      <trkpt lat="56.879491844113" lon="14.741334953217">
        <ele>160.2</ele>
        <time>2019-10-21T18:07:07Z</time>
      </trkpt>
      <trkpt lat="56.87935714698" lon="14.741910705928">
        <ele>161.6</ele>
        <time>2019-10-21T18:07:13Z</time>
      </trkpt>
      <trkpt lat="56.879247008814" lon="14.742296776242">
        <ele>162</ele>
        <time>2019-10-21T18:07:18Z</time>
      </trkpt>
      <trkpt lat="56.879218929449" lon="14.742436837791">
        <ele>161.6</ele>
        <time>2019-10-21T18:07:20Z</time>
      </trkpt>
      <trkpt lat="56.879180372709" lon="14.742693156293">
        <ele>161.2</ele>
        <time>2019-10-21T18:07:23Z</time>
      </trkpt>
      <trkpt lat="56.879134272259" lon="14.742994150322">
        <ele>161.6</ele>
        <time>2019-10-21T18:07:26Z</time>
      </trkpt>
      <trkpt lat="56.879137625019" lon="14.743550959939">
        <ele>161.8</ele>
        <time>2019-10-21T18:07:31Z</time>
      </trkpt>
      <trkpt lat="56.879161094339" lon="14.743663361218">
        <ele>161.4</ele>
        <time>2019-10-21T18:07:33Z</time>
      </trkpt>
      <trkpt lat="56.879378269368" lon="14.743950944207">
        <ele>160.4</ele>
        <time>2019-10-21T18:07:38Z</time>
      </trkpt>
      <trkpt lat="56.879731901729" lon="14.744522673606">
        <ele>160.6</ele>
        <time>2019-10-21T18:07:47Z</time>
      </trkpt>
      <trkpt lat="56.880169017814" lon="14.744880748374">
        <ele>160.2</ele>
        <time>2019-10-21T18:07:55Z</time>
      </trkpt>
      <trkpt lat="56.880283514568" lon="14.744932129421">
        <ele>159.2</ele>
        <time>2019-10-21T18:07:57Z</time>
      </trkpt>
      <trkpt lat="56.880756589004" lon="14.744903547142">
        <ele>158.8</ele>
        <time>2019-10-21T18:08:05Z</time>
      </trkpt>
      <trkpt lat="56.881214995115" lon="14.74489281831">
        <ele>159.6</ele>
        <time>2019-10-21T18:08:13Z</time>
      </trkpt>
      <trkpt lat="56.88138137583" lon="14.744942690615">
        <ele>158.4</ele>
        <time>2019-10-21T18:08:16Z</time>
      </trkpt>
      <trkpt lat="56.881427141004" lon="14.744986947047">
        <ele>157.8</ele>
        <time>2019-10-21T18:08:17Z</time>
      </trkpt>
      <trkpt lat="56.881464021364" lon="14.745031371117">
        <ele>157.4</ele>
        <time>2019-10-21T18:08:18Z</time>
      </trkpt>
      <trkpt lat="56.881537614446" lon="14.745081662517">
        <ele>156.8</ele>
        <time>2019-10-21T18:08:20Z</time>
      </trkpt>
      <trkpt lat="56.88157164496" lon="14.745060959224">
        <ele>156.8</ele>
        <time>2019-10-21T18:08:21Z</time>
      </trkpt>
      <trkpt lat="56.881594611366" lon="14.745003375571">
        <ele>156.8</ele>
        <time>2019-10-21T18:08:22Z</time>
      </trkpt>
      <trkpt lat="56.881613889736" lon="14.744750074553">
        <ele>157.4</ele>
        <time>2019-10-21T18:08:25Z</time>
      </trkpt>
      <trkpt lat="56.881621517265" lon="14.744569109332">
        <ele>157.8</ele>
        <time>2019-10-21T18:08:27Z</time>
      </trkpt>
      <trkpt lat="56.881629060975" lon="14.744478081898">
        <ele>158.2</ele>
        <time>2019-10-21T18:08:28Z</time>
      </trkpt>
      <trkpt lat="56.88163702378" lon="14.744206256881">
        <ele>158.4</ele>
        <time>2019-10-21T18:08:31Z</time>
      </trkpt>
      <trkpt lat="56.881587989665" lon="14.743774253755">
        <ele>158.2</ele>
        <time>2019-10-21T18:08:36Z</time>
      </trkpt>
      <trkpt lat="56.881612213356" lon="14.742888789839">
        <ele>158.8</ele>
        <time>2019-10-21T18:08:45Z</time>
      </trkpt>
      <trkpt lat="56.881621349627" lon="14.74258695762">
        <ele>158.6</ele>
        <time>2019-10-21T18:08:48Z</time>
      </trkpt>
      <trkpt lat="56.881628138966" lon="14.742384786192">
        <ele>158.6</ele>
        <time>2019-10-21T18:08:50Z</time>
      </trkpt>
      <trkpt lat="56.881634593029" lon="14.741889918816">
        <ele>158.2</ele>
        <time>2019-10-21T18:08:55Z</time>
      </trkpt>
      <trkpt lat="56.881635934133" lon="14.74167919785">
        <ele>158</ele>
        <time>2019-10-21T18:08:57Z</time>
      </trkpt>
      <trkpt lat="56.881595281918" lon="14.741470739997">
        <ele>157.6</ele>
        <time>2019-10-21T18:08:59Z</time>
      </trkpt>
      <trkpt lat="56.881509786538" lon="14.741333695932">
        <ele>157.2</ele>
        <time>2019-10-21T18:09:01Z</time>
      </trkpt>
      <trkpt lat="56.881102845293" lon="14.741140576956">
        <ele>156</ele>
        <time>2019-10-21T18:09:08Z</time>
      </trkpt>
      <trkpt lat="56.88079045188" lon="14.740838996194">
        <ele>157</ele>
        <time>2019-10-21T18:09:15Z</time>
      </trkpt>
      <trkpt lat="56.880707722527" lon="14.740713435332">
        <ele>156.6</ele>
        <time>2019-10-21T18:09:17Z</time>
      </trkpt>
      <trkpt lat="56.880564811132" lon="14.740431635854">
        <ele>156.2</ele>
        <time>2019-10-21T18:09:21Z</time>
      </trkpt>
      <trkpt lat="56.880268343329" lon="14.739869042726">
        <ele>157</ele>
        <time>2019-10-21T18:09:29Z</time>
      </trkpt>
      <trkpt lat="56.880235234824" lon="14.739798718585">
        <ele>157.4</ele>
        <time>2019-10-21T18:09:30Z</time>
      </trkpt>
      <trkpt lat="56.880138675336" lon="14.739602498306">
        <ele>158.2</ele>
        <time>2019-10-21T18:09:33Z</time>
      </trkpt>
      <trkpt lat="56.880104728641" lon="14.739543657368">
        <ele>158.6</ele>
        <time>2019-10-21T18:09:34Z</time>
      </trkpt>
      <trkpt lat="56.880030800283" lon="14.739445505319">
        <ele>159.2</ele>
        <time>2019-10-21T18:09:36Z</time>
      </trkpt>
      <trkpt lat="56.879959973228" lon="14.739373923893">
        <ele>158.6</ele>
        <time>2019-10-21T18:09:38Z</time>
      </trkpt>
      <trkpt lat="56.879909933285" lon="14.739412145357">
        <ele>158.8</ele>
        <time>2019-10-21T18:09:40Z</time>
      </trkpt>
      <trkpt lat="56.879783366595" lon="14.74020901259">
        <ele>159.2</ele>
        <time>2019-10-21T18:09:50Z</time>
      </trkpt>
      <trkpt lat="56.879630480739" lon="14.741040664708">
        <ele>159.8</ele>
        <time>2019-10-21T18:10:00Z</time>
      </trkpt>
      <trkpt lat="56.879460663445" lon="14.741645083517">
        <ele>160.4</ele>
        <time>2019-10-21T18:10:08Z</time>
      </trkpt>
      <trkpt lat="56.87938648363" lon="14.741877513604">
        <ele>159.2</ele>
        <time>2019-10-21T18:10:11Z</time>
      </trkpt>
      <trkpt lat="56.879357649894" lon="14.741946329003">
        <ele>159</ele>
        <time>2019-10-21T18:10:12Z</time>
      </trkpt>
      <trkpt lat="56.87927081341" lon="14.742174400502">
        <ele>159.4</ele>
        <time>2019-10-21T18:10:15Z</time>
      </trkpt>
      <trkpt lat="56.87923393305" lon="14.742323095408">
        <ele>159.8</ele>
        <time>2019-10-21T18:10:17Z</time>
      </trkpt>
      <trkpt lat="56.879209793178" lon="14.742462989319">
        <ele>160.2</ele>
        <time>2019-10-21T18:10:19Z</time>
      </trkpt>
      <trkpt lat="56.87918447984" lon="14.742611013673">
        <ele>160.2</ele>
        <time>2019-10-21T18:10:21Z</time>
      </trkpt>
      <trkpt lat="56.879171990809" lon="14.742695000311">
        <ele>161.4</ele>
        <time>2019-10-21T18:10:22Z</time>
      </trkpt>
      <trkpt lat="56.879114742432" lon="14.74302281642">
        <ele>161.6</ele>
        <time>2019-10-21T18:10:26Z</time>
      </trkpt>
      <trkpt lat="56.879098816822" lon="14.743557833097">
        <ele>162.2</ele>
        <time>2019-10-21T18:10:32Z</time>
      </trkpt>
      <trkpt lat="56.879146342195" lon="14.743691189126">
        <ele>162</ele>
        <time>2019-10-21T18:10:34Z</time>
      </trkpt>
      <trkpt lat="56.879229239186" lon="14.743797387799">
        <ele>162</ele>
        <time>2019-10-21T18:10:36Z</time>
      </trkpt>
      <trkpt lat="56.879314231652" lon="14.743898641151">
        <ele>162</ele>
        <time>2019-10-21T18:10:38Z</time>
      </trkpt>
      <trkpt lat="56.879400900498" lon="14.743992350793">
        <ele>160.4</ele>
        <time>2019-10-21T18:10:40Z</time>
      </trkpt>
      <trkpt lat="56.879577423312" lon="14.744320753635">
        <ele>161.4</ele>
        <time>2019-10-21T18:10:45Z</time>
      </trkpt>
      <trkpt lat="56.879692758256" lon="14.744508340557">
        <ele>161.6</ele>
        <time>2019-10-21T18:10:48Z</time>
      </trkpt>
      <trkpt lat="56.879826701018" lon="14.74465225778">
        <ele>162.4</ele>
        <time>2019-10-21T18:10:51Z</time>
      </trkpt>
      <trkpt lat="56.879875818952" lon="14.744698609687">
        <ele>162.6</ele>
        <time>2019-10-21T18:10:52Z</time>
      </trkpt>
      <trkpt lat="56.880133227101" lon="14.744925926815">
        <ele>161.4</ele>
        <time>2019-10-21T18:10:57Z</time>
      </trkpt>
      <trkpt lat="56.8803026253" lon="14.744995748042">
        <ele>161</ele>
        <time>2019-10-21T18:11:00Z</time>
      </trkpt>
      <trkpt lat="56.880547628237" lon="14.74498334283">
        <ele>160.6</ele>
        <time>2019-10-21T18:11:04Z</time>
      </trkpt>
      <trkpt lat="56.880711410563" lon="14.74493472781">
        <ele>160.2</ele>
        <time>2019-10-21T18:11:07Z</time>
      </trkpt>
      <trkpt lat="56.880987510349" lon="14.744888459722">
        <ele>159</ele>
        <time>2019-10-21T18:11:12Z</time>
      </trkpt>
      <trkpt lat="56.881139306558" lon="14.744883682039">
        <ele>159.6</ele>
        <time>2019-10-21T18:11:15Z</time>
      </trkpt>
      <trkpt lat="56.881297892106" lon="14.744911090852">
        <ele>160</ele>
        <time>2019-10-21T18:11:18Z</time>
      </trkpt>
      <trkpt lat="56.881348602601" lon="14.744928609023">
        <ele>158.8</ele>
        <time>2019-10-21T18:11:19Z</time>
      </trkpt>
      <trkpt lat="56.881396966164" lon="14.744961382252">
        <ele>158.8</ele>
        <time>2019-10-21T18:11:20Z</time>
      </trkpt>
      <trkpt lat="56.881472989997" lon="14.745046458537">
        <ele>158.4</ele>
        <time>2019-10-21T18:11:22Z</time>
      </trkpt>
      <trkpt lat="56.881538033541" lon="14.745090128236">
        <ele>157.4</ele>
        <time>2019-10-21T18:11:24Z</time>
      </trkpt>
      <trkpt lat="56.8816102017" lon="14.744927016462">
        <ele>159</ele>
        <time>2019-10-21T18:11:27Z</time>
      </trkpt>
      <trkpt lat="56.881632246097" lon="14.744665501182">
        <ele>160.4</ele>
        <time>2019-10-21T18:11:30Z</time>
      </trkpt>
      <trkpt lat="56.881657391797" lon="14.744386467731">
        <ele>160.4</ele>
        <time>2019-10-21T18:11:33Z</time>
      </trkpt>
      <trkpt lat="56.881643813119" lon="14.744215309333">
        <ele>160.6</ele>
        <time>2019-10-21T18:11:35Z</time>
      </trkpt>
      <trkpt lat="56.88156996858" lon="14.743877602582">
        <ele>161</ele>
        <time>2019-10-21T18:11:39Z</time>
      </trkpt>
      <trkpt lat="56.881559239748" lon="14.743691105307">
        <ele>161.2</ele>
        <time>2019-10-21T18:11:41Z</time>
      </trkpt>
      <trkpt lat="56.881576925557" lon="14.743121555202">
        <ele>160.8</ele>
        <time>2019-10-21T18:11:47Z</time>
      </trkpt>
      <trkpt lat="56.881579691584" lon="14.742931872805">
        <ele>160.8</ele>
        <time>2019-10-21T18:11:49Z</time>
      </trkpt>
      <trkpt lat="56.881596120108" lon="14.74253582803">
        <ele>161.6</ele>
        <time>2019-10-21T18:11:53Z</time>
      </trkpt>
      <trkpt lat="56.881648842259" lon="14.741698895315">
        <ele>160.8</ele>
        <time>2019-10-21T18:12:01Z</time>
      </trkpt>
      <trkpt lat="56.881642723472" lon="14.741594875936">
        <ele>160.6</ele>
        <time>2019-10-21T18:12:02Z</time>
      </trkpt>
      <trkpt lat="56.881589833683" lon="14.741426735022">
        <ele>160.6</ele>
        <time>2019-10-21T18:12:04Z</time>
      </trkpt>
      <trkpt lat="56.881492687462" lon="14.74133721633">
        <ele>160</ele>
        <time>2019-10-21T18:12:06Z</time>
      </trkpt>
      <trkpt lat="56.881305603454" lon="14.741269909673">
        <ele>159.4</ele>
        <time>2019-10-21T18:12:09Z</time>
      </trkpt>
      <trkpt lat="56.880911905611" lon="14.741069666082">
        <ele>160.4</ele>
        <time>2019-10-21T18:12:16Z</time>
      </trkpt>
      <trkpt lat="56.880870415206" lon="14.74102289508">
        <ele>160.8</ele>
        <time>2019-10-21T18:12:17Z</time>
      </trkpt>
      <trkpt lat="56.880754242072" lon="14.740867075559">
        <ele>160.8</ele>
        <time>2019-10-21T18:12:20Z</time>
      </trkpt>
      <trkpt lat="56.880683666474" lon="14.740723242155">
        <ele>159.2</ele>
        <time>2019-10-21T18:12:22Z</time>
      </trkpt>
      <trkpt lat="56.880467413454" lon="14.740271206288">
        <ele>159.4</ele>
        <time>2019-10-21T18:12:28Z</time>
      </trkpt>
      <trkpt lat="56.880381079884" lon="14.740034249975">
        <ele>159.4</ele>
        <time>2019-10-21T18:12:31Z</time>
      </trkpt>
      <trkpt lat="56.880032141387" lon="14.739469226096">
        <ele>159.2</ele>
        <time>2019-10-21T18:12:40Z</time>
      </trkpt>
      <trkpt lat="56.879962823074" lon="14.739380797051">
        <ele>159.8</ele>
        <time>2019-10-21T18:12:42Z</time>
      </trkpt>
      <trkpt lat="56.879922757592" lon="14.739367637468">
        <ele>160.2</ele>
        <time>2019-10-21T18:12:43Z</time>
      </trkpt>
      <trkpt lat="56.879884536128" lon="14.739383982173">
        <ele>160.4</ele>
        <time>2019-10-21T18:12:44Z</time>
      </trkpt>
      <trkpt lat="56.879842291352" lon="14.739485067887">
        <ele>161</ele>
        <time>2019-10-21T18:12:46Z</time>
      </trkpt>
      <trkpt lat="56.879824186448" lon="14.739556397856">
        <ele>161.4</ele>
        <time>2019-10-21T18:12:47Z</time>
      </trkpt>
      <trkpt lat="56.879808512295" lon="14.739631080585">
        <ele>161.8</ele>
        <time>2019-10-21T18:12:48Z</time>
      </trkpt>
      <trkpt lat="56.879774984695" lon="14.739889326924">
        <ele>162.6</ele>
        <time>2019-10-21T18:12:51Z</time>
      </trkpt>
      <trkpt lat="56.879637689173" lon="14.740701113939">
        <ele>162.2</ele>
        <time>2019-10-21T18:13:01Z</time>
      </trkpt>
      <trkpt lat="56.879457059228" lon="14.741455568758">
        <ele>162</ele>
        <time>2019-10-21T18:13:10Z</time>
      </trkpt>
      <trkpt lat="56.879354800048" lon="14.741964601545">
        <ele>162.8</ele>
        <time>2019-10-21T18:13:16Z</time>
      </trkpt>
      <trkpt lat="56.879322697371" lon="14.742113464089">
        <ele>163</ele>
        <time>2019-10-21T18:13:18Z</time>
      </trkpt>
      <trkpt lat="56.879208954988" lon="14.742566505784">
        <ele>163.6</ele>
        <time>2019-10-21T18:13:25Z</time>
      </trkpt>
      <trkpt lat="56.879191520636" lon="14.742640685599">
        <ele>163.6</ele>
        <time>2019-10-21T18:13:26Z</time>
      </trkpt>
      <trkpt lat="56.8790956317" lon="14.74296665769">
        <ele>164</ele>
        <time>2019-10-21T18:13:30Z</time>
      </trkpt>
      <trkpt lat="56.879076437149" lon="14.743509134258">
        <ele>163</ele>
        <time>2019-10-21T18:13:36Z</time>
      </trkpt>
      <trkpt lat="56.879135529544" lon="14.743651291282">
        <ele>162.6</ele>
        <time>2019-10-21T18:13:38Z</time>
      </trkpt>
      <trkpt lat="56.879268717935" lon="14.743807194622">
        <ele>162.8</ele>
        <time>2019-10-21T18:13:41Z</time>
      </trkpt>
      <trkpt lat="56.879401403412" lon="14.743952201492">
        <ele>163.6</ele>
        <time>2019-10-21T18:13:44Z</time>
      </trkpt>
      <trkpt lat="56.879441468894" lon="14.744012802629">
        <ele>163.8</ele>
        <time>2019-10-21T18:13:45Z</time>
      </trkpt>
      <trkpt lat="56.879658727742" lon="14.744379175478">
        <ele>164.2</ele>
        <time>2019-10-21T18:13:51Z</time>
      </trkpt>
      <trkpt lat="56.879737517602" lon="14.744494258965">
        <ele>164</ele>
        <time>2019-10-21T18:13:53Z</time>
      </trkpt>
      <trkpt lat="56.88005703563" lon="14.74482743949">
        <ele>163.6</ele>
        <time>2019-10-21T18:14:00Z</time>
      </trkpt>
      <trkpt lat="56.880369261405" lon="14.744972194903">
        <ele>162.8</ele>
        <time>2019-10-21T18:14:06Z</time>
      </trkpt>
      <trkpt lat="56.880422151194" lon="14.744972027265">
        <ele>162.6</ele>
        <time>2019-10-21T18:14:07Z</time>
      </trkpt>
      <trkpt lat="56.880891789051" lon="14.744898015088">
        <ele>162.8</ele>
        <time>2019-10-21T18:14:16Z</time>
      </trkpt>
      <trkpt lat="56.880941493718" lon="14.744893237405">
        <ele>162.8</ele>
        <time>2019-10-21T18:14:17Z</time>
      </trkpt>
      <trkpt lat="56.881153304331" lon="14.744924501892">
        <ele>161.6</ele>
        <time>2019-10-21T18:14:21Z</time>
      </trkpt>
      <trkpt lat="56.881204601559" lon="14.74493975695">
        <ele>161.6</ele>
        <time>2019-10-21T18:14:22Z</time>
      </trkpt>
      <trkpt lat="56.88140735972" lon="14.745030532927">
        <ele>161.2</ele>
        <time>2019-10-21T18:14:26Z</time>
      </trkpt>
      <trkpt lat="56.881480114612" lon="14.7451115859">
        <ele>160.6</ele>
        <time>2019-10-21T18:14:28Z</time>
      </trkpt>
      <trkpt lat="56.881507523425" lon="14.745133630297">
        <ele>160.4</ele>
        <time>2019-10-21T18:14:29Z</time>
      </trkpt>
      <trkpt lat="56.881535435152" lon="14.745125248397">
        <ele>160.2</ele>
        <time>2019-10-21T18:14:30Z</time>
      </trkpt>
      <trkpt lat="56.881590252778" lon="14.745030197651">
        <ele>160</ele>
        <time>2019-10-21T18:14:32Z</time>
      </trkpt>
      <trkpt lat="56.881633335744" lon="14.744570031341">
        <ele>161.6</ele>
        <time>2019-10-21T18:14:37Z</time>
      </trkpt>
      <trkpt lat="56.881636017952" lon="14.744298793057">
        <ele>162.6</ele>
        <time>2019-10-21T18:14:40Z</time>
      </trkpt>
      <trkpt lat="56.881610034062" lon="14.744126545012">
        <ele>162.4</ele>
        <time>2019-10-21T18:14:42Z</time>
      </trkpt>
      <trkpt lat="56.881561167585" lon="14.743872154347">
        <ele>162.8</ele>
        <time>2019-10-21T18:14:45Z</time>
      </trkpt>
      <trkpt lat="56.881570471494" lon="14.743385417414">
        <ele>161.2</ele>
        <time>2019-10-21T18:14:50Z</time>
      </trkpt>
      <trkpt lat="56.881571309684" lon="14.743104623764">
        <ele>160.4</ele>
        <time>2019-10-21T18:14:53Z</time>
      </trkpt>
      <trkpt lat="56.881619170333" lon="14.742287891428">
        <ele>161</ele>
        <time>2019-10-21T18:15:01Z</time>
      </trkpt>
      <trkpt lat="56.881623445102" lon="14.741578195955">
        <ele>161.4</ele>
        <time>2019-10-21T18:15:08Z</time>
      </trkpt>
      <trkpt lat="56.881566783458" lon="14.741407456652">
        <ele>161</ele>
        <time>2019-10-21T18:15:10Z</time>
      </trkpt>
      <trkpt lat="56.881472654721" lon="14.741311064802">
        <ele>160.2</ele>
        <time>2019-10-21T18:15:12Z</time>
      </trkpt>
      <trkpt lat="56.881365282582" lon="14.74126680837">
        <ele>159.8</ele>
        <time>2019-10-21T18:15:14Z</time>
      </trkpt>
      <trkpt lat="56.880898662209" lon="14.741076623059">
        <ele>160.2</ele>
        <time>2019-10-21T18:15:22Z</time>
      </trkpt>
      <trkpt lat="56.880736053349" lon="14.740836062529">
        <ele>160</ele>
        <time>2019-10-21T18:15:26Z</time>
      </trkpt>
      <trkpt lat="56.880424246669" lon="14.740176909913">
        <ele>159.6</ele>
        <time>2019-10-21T18:15:35Z</time>
      </trkpt>
      <trkpt lat="56.880284017482" lon="14.739894942797">
        <ele>161.2</ele>
        <time>2019-10-21T18:15:39Z</time>
      </trkpt>
      <trkpt lat="56.879950669319" lon="14.739415330479">
        <ele>161.2</ele>
        <time>2019-10-21T18:15:48Z</time>
      </trkpt>
      <trkpt lat="56.879898533901" lon="14.739417593592">
        <ele>161</ele>
        <time>2019-10-21T18:15:50Z</time>
      </trkpt>
      <trkpt lat="56.879748246434" lon="14.739981527824">
        <ele>162.4</ele>
        <time>2019-10-21T18:15:58Z</time>
      </trkpt>
      <trkpt lat="56.87956166534" lon="14.740774287926">
        <ele>162.6</ele>
        <time>2019-10-21T18:16:08Z</time>
      </trkpt>
      <trkpt lat="56.879390842218" lon="14.741418017846">
        <ele>163.6</ele>
        <time>2019-10-21T18:16:16Z</time>
      </trkpt>
      <trkpt lat="56.87919286174" lon="14.742174149045">
        <ele>163.2</ele>
        <time>2019-10-21T18:16:26Z</time>
      </trkpt>
      <trkpt lat="56.879080292823" lon="14.742847215615">
        <ele>163.8</ele>
        <time>2019-10-21T18:16:35Z</time>
      </trkpt>
      <trkpt lat="56.879024050274" lon="14.743203614003">
        <ele>164</ele>
        <time>2019-10-21T18:16:39Z</time>
      </trkpt>
      <trkpt lat="56.879028408862" lon="14.743555569984">
        <ele>163.8</ele>
        <time>2019-10-21T18:16:43Z</time>
      </trkpt>
      <trkpt lat="56.879075263683" lon="14.743690099479">
        <ele>163.6</ele>
        <time>2019-10-21T18:16:45Z</time>
      </trkpt>
      <trkpt lat="56.879155813742" lon="14.743773164108">
        <ele>163.8</ele>
        <time>2019-10-21T18:16:47Z</time>
      </trkpt>
      <trkpt lat="56.879493017579" lon="14.74422561907">
        <ele>164.2</ele>
        <time>2019-10-21T18:16:56Z</time>
      </trkpt>
      <trkpt lat="56.879561497702" lon="14.744350174104">
        <ele>164</ele>
        <time>2019-10-21T18:16:58Z</time>
      </trkpt>
      <trkpt lat="56.87967901194" lon="14.744514543163">
        <ele>163.6</ele>
        <time>2019-10-21T18:17:01Z</time>
      </trkpt>
      <trkpt lat="56.87998662767" lon="14.744796510279">
        <ele>162.4</ele>
        <time>2019-10-21T18:17:07Z</time>
      </trkpt>
      <trkpt lat="56.880041864391" lon="14.74483749777">
        <ele>161.2</ele>
        <time>2019-10-21T18:17:08Z</time>
      </trkpt>
      <trkpt lat="56.880098358397" lon="14.744873288483">
        <ele>160.8</ele>
        <time>2019-10-21T18:17:09Z</time>
      </trkpt>
      <trkpt lat="56.880224086897" lon="14.744922741693">
        <ele>162.6</ele>
        <time>2019-10-21T18:17:11Z</time>
      </trkpt>
      <trkpt lat="56.880280580903" lon="14.744940678959">
        <ele>162.4</ele>
        <time>2019-10-21T18:17:12Z</time>
      </trkpt>
      <trkpt lat="56.880762875429" lon="14.74489449469">
        <ele>161.6</ele>
        <time>2019-10-21T18:17:21Z</time>
      </trkpt>
      <trkpt lat="56.880815513761" lon="14.744885777514">
        <ele>161.4</ele>
        <time>2019-10-21T18:17:22Z</time>
      </trkpt>
      <trkpt lat="56.881065797295" lon="14.744861553823">
        <ele>161.4</ele>
        <time>2019-10-21T18:17:27Z</time>
      </trkpt>
      <trkpt lat="56.881323456901" lon="14.744912264318">
        <ele>161</ele>
        <time>2019-10-21T18:17:32Z</time>
      </trkpt>
      <trkpt lat="56.881397133802" lon="14.744996083318">
        <ele>160.2</ele>
        <time>2019-10-21T18:17:34Z</time>
      </trkpt>
      <trkpt lat="56.881425967538" lon="14.745029946194">
        <ele>159.8</ele>
        <time>2019-10-21T18:17:35Z</time>
      </trkpt>
      <trkpt lat="56.881490508168" lon="14.745070766047">
        <ele>159.4</ele>
        <time>2019-10-21T18:17:37Z</time>
      </trkpt>
      <trkpt lat="56.881555384074" lon="14.745000777182">
        <ele>159.4</ele>
        <time>2019-10-21T18:17:39Z</time>
      </trkpt>
      <trkpt lat="56.881593605538" lon="14.744773208597">
        <ele>160.4</ele>
        <time>2019-10-21T18:17:42Z</time>
      </trkpt>
      <trkpt lat="56.881603999094" lon="14.744526864556">
        <ele>160.8</ele>
        <time>2019-10-21T18:17:45Z</time>
      </trkpt>
      <trkpt lat="56.881602322714" lon="14.744261242145">
        <ele>160.6</ele>
        <time>2019-10-21T18:17:48Z</time>
      </trkpt>
      <trkpt lat="56.881574075711" lon="14.744090838118">
        <ele>161.4</ele>
        <time>2019-10-21T18:17:50Z</time>
      </trkpt>
      <trkpt lat="56.881536943894" lon="14.743922864842">
        <ele>162</ele>
        <time>2019-10-21T18:17:52Z</time>
      </trkpt>
      <trkpt lat="56.881535518971" lon="14.743733098626">
        <ele>162.2</ele>
        <time>2019-10-21T18:17:54Z</time>
      </trkpt>
      <trkpt lat="56.881545158156" lon="14.743120130279">
        <ele>161.6</ele>
        <time>2019-10-21T18:18:00Z</time>
      </trkpt>
      <trkpt lat="56.881550857848" lon="14.742919132317">
        <ele>161.4</ele>
        <time>2019-10-21T18:18:02Z</time>
      </trkpt>
      <trkpt lat="56.881598550859" lon="14.742439855275">
        <ele>162.6</ele>
        <time>2019-10-21T18:18:07Z</time>
      </trkpt>
      <trkpt lat="56.881613889736" lon="14.742255453475">
        <ele>160.6</ele>
        <time>2019-10-21T18:18:09Z</time>
      </trkpt>
      <trkpt lat="56.881648674621" lon="14.741772404578">
        <ele>160.8</ele>
        <time>2019-10-21T18:18:14Z</time>
      </trkpt>
      <trkpt lat="56.881640460359" lon="14.741575178471">
        <ele>160.8</ele>
        <time>2019-10-21T18:18:16Z</time>
      </trkpt>
      <trkpt lat="56.881587905846" lon="14.741412737249">
        <ele>160.6</ele>
        <time>2019-10-21T18:18:18Z</time>
      </trkpt>
      <trkpt lat="56.881438121293" lon="14.741290026233">
        <ele>160</ele>
        <time>2019-10-21T18:18:21Z</time>
      </trkpt>
      <trkpt lat="56.881275260976" lon="14.741244344878">
        <ele>159.6</ele>
        <time>2019-10-21T18:18:24Z</time>
      </trkpt>
      <trkpt lat="56.88102598327" lon="14.741107719908">
        <ele>160.8</ele>
        <time>2019-10-21T18:18:29Z</time>
      </trkpt>
      <trkpt lat="56.88088432916" lon="14.741004035805">
        <ele>160.8</ele>
        <time>2019-10-21T18:18:32Z</time>
      </trkpt>
      <trkpt lat="56.880773101347" lon="14.740814018132">
        <ele>160.2</ele>
        <time>2019-10-21T18:18:35Z</time>
      </trkpt>
      <trkpt lat="56.880661202982" lon="14.740614193636">
        <ele>160.2</ele>
        <time>2019-10-21T18:18:38Z</time>
      </trkpt>
      <trkpt lat="56.880561793648" lon="14.740386122137">
        <ele>161</ele>
        <time>2019-10-21T18:18:41Z</time>
      </trkpt>
      <trkpt lat="56.88024814295" lon="14.739744487692">
        <ele>160.2</ele>
        <time>2019-10-21T18:18:50Z</time>
      </trkpt>
      <trkpt lat="56.879997188864" lon="14.739393621358">
        <ele>161.2</ele>
        <time>2019-10-21T18:18:57Z</time>
      </trkpt>
      <trkpt lat="56.879918650461" lon="14.739392447892">
        <ele>161.6</ele>
        <time>2019-10-21T18:18:59Z</time>
      </trkpt>
      <trkpt lat="56.879884284671" lon="14.739432429555">
        <ele>161.8</ele>
        <time>2019-10-21T18:19:00Z</time>
      </trkpt>
      <trkpt lat="56.879855953849" lon="14.739495209986">
        <ele>160.6</ele>
        <time>2019-10-21T18:19:01Z</time>
      </trkpt>
      <trkpt lat="56.879733242833" lon="14.739889159286">
        <ele>162.2</ele>
        <time>2019-10-21T18:19:06Z</time>
      </trkpt>
      <trkpt lat="56.879563257901" lon="14.740713351513">
        <ele>161.8</ele>
        <time>2019-10-21T18:19:16Z</time>
      </trkpt>
      <trkpt lat="56.879353961858" lon="14.741508626185">
        <ele>162.2</ele>
        <time>2019-10-21T18:19:26Z</time>
      </trkpt>
      <trkpt lat="56.879255893628" lon="14.741925374253">
        <ele>161</ele>
        <time>2019-10-21T18:19:31Z</time>
      </trkpt>
      <trkpt lat="56.879123711065" lon="14.742343714882">
        <ele>161.6</ele>
        <time>2019-10-21T18:19:37Z</time>
      </trkpt>
      <trkpt lat="56.879111724948" lon="14.7424293779">
        <ele>162.2</ele>
        <time>2019-10-21T18:19:38Z</time>
      </trkpt>
      <trkpt lat="56.879027319215" lon="14.743004040964">
        <ele>162.2</ele>
        <time>2019-10-21T18:19:45Z</time>
      </trkpt>
      <trkpt lat="56.879037628952" lon="14.743538722365">
        <ele>163.8</ele>
        <time>2019-10-21T18:19:51Z</time>
      </trkpt>
      <trkpt lat="56.879055650037" lon="14.74362631322">
        <ele>162.8</ele>
        <time>2019-10-21T18:19:52Z</time>
      </trkpt>
      <trkpt lat="56.879074844588" lon="14.743697978465">
        <ele>162.4</ele>
        <time>2019-10-21T18:19:53Z</time>
      </trkpt>
      <trkpt lat="56.879098397727" lon="14.743751287349">
        <ele>163</ele>
        <time>2019-10-21T18:19:54Z</time>
      </trkpt>
      <trkpt lat="56.879174253922" lon="14.743832172684">
        <ele>163.4</ele>
        <time>2019-10-21T18:19:56Z</time>
      </trkpt>
      <trkpt lat="56.879363433405" lon="14.744048509523">
        <ele>163.4</ele>
        <time>2019-10-21T18:20:01Z</time>
      </trkpt>
      <trkpt lat="56.879715389386" lon="14.74461118647">
        <ele>163.4</ele>
        <time>2019-10-21T18:20:11Z</time>
      </trkpt>
      <trkpt lat="56.880083270977" lon="14.744893069767">
        <ele>162.4</ele>
        <time>2019-10-21T18:20:18Z</time>
      </trkpt>
      <trkpt lat="56.880303631128" lon="14.744966159935">
        <ele>162.2</ele>
        <time>2019-10-21T18:20:22Z</time>
      </trkpt>
      <trkpt lat="56.880803276187" lon="14.74490287659">
        <ele>161.6</ele>
        <time>2019-10-21T18:20:31Z</time>
      </trkpt>
      <trkpt lat="56.880864464057" lon="14.744893405043">
        <ele>161.4</ele>
        <time>2019-10-21T18:20:32Z</time>
      </trkpt>
      <trkpt lat="56.881321193788" lon="14.744952245981">
        <ele>161.4</ele>
        <time>2019-10-21T18:20:41Z</time>
      </trkpt>
      <trkpt lat="56.88139813963" lon="14.745012092747">
        <ele>160.6</ele>
        <time>2019-10-21T18:20:43Z</time>
      </trkpt>
      <trkpt lat="56.881430912859" lon="14.745054924256">
        <ele>160</ele>
        <time>2019-10-21T18:20:44Z</time>
      </trkpt>
      <trkpt lat="56.881493106557" lon="14.745095325014">
        <ele>159.6</ele>
        <time>2019-10-21T18:20:46Z</time>
      </trkpt>
      <trkpt lat="56.881556808997" lon="14.745040842664">
        <ele>160</ele>
        <time>2019-10-21T18:20:48Z</time>
      </trkpt>
      <trkpt lat="56.881617829229" lon="14.744620909474">
        <ele>161</ele>
        <time>2019-10-21T18:20:53Z</time>
      </trkpt>
      <trkpt lat="56.881633000468" lon="14.744350760837">
        <ele>161.4</ele>
        <time>2019-10-21T18:20:56Z</time>
      </trkpt>
      <trkpt lat="56.881624283292" lon="14.744185553588">
        <ele>161.2</ele>
        <time>2019-10-21T18:20:58Z</time>
      </trkpt>
      <trkpt lat="56.881573991892" lon="14.743927558706">
        <ele>160.8</ele>
        <time>2019-10-21T18:21:01Z</time>
      </trkpt>
      <trkpt lat="56.88156410125" lon="14.74374365982">
        <ele>160.8</ele>
        <time>2019-10-21T18:21:03Z</time>
      </trkpt>
      <trkpt lat="56.881607938587" lon="14.742914773729">
        <ele>161.6</ele>
        <time>2019-10-21T18:21:12Z</time>
      </trkpt>
      <trkpt lat="56.881628390423" lon="14.742532810546">
        <ele>162.2</ele>
        <time>2019-10-21T18:21:16Z</time>
      </trkpt>
      <trkpt lat="56.88163870016" lon="14.74224246153">
        <ele>162.4</ele>
        <time>2019-10-21T18:21:19Z</time>
      </trkpt>
      <trkpt lat="56.8816772569" lon="14.741753880579">
        <ele>161.8</ele>
        <time>2019-10-21T18:21:24Z</time>
      </trkpt>
      <trkpt lat="56.881656637426" lon="14.741554894273">
        <ele>161.6</ele>
        <time>2019-10-21T18:21:26Z</time>
      </trkpt>
      <trkpt lat="56.881614057374" lon="14.741397482191">
        <ele>161.2</ele>
        <time>2019-10-21T18:21:28Z</time>
      </trkpt>
      <trkpt lat="56.881514899497" lon="14.74130201235">
        <ele>160.6</ele>
        <time>2019-10-21T18:21:30Z</time>
      </trkpt>
      <trkpt lat="56.881394116318" lon="14.741261611592">
        <ele>160</ele>
        <time>2019-10-21T18:21:32Z</time>
      </trkpt>
      <trkpt lat="56.881135869979" lon="14.741145019363">
        <ele>161.2</ele>
        <time>2019-10-21T18:21:37Z</time>
      </trkpt>
      <trkpt lat="56.881011650221" lon="14.741047705504">
        <ele>161</ele>
        <time>2019-10-21T18:21:40Z</time>
      </trkpt>
      <trkpt lat="56.880818447426" lon="14.740768839691">
        <ele>160</ele>
        <time>2019-10-21T18:21:47Z</time>
      </trkpt>
      <trkpt lat="56.880803108549" lon="14.740728774209">
        <ele>160</ele>
        <time>2019-10-21T18:21:48Z</time>
      </trkpt>
    </trkseg>
  </trk>
</gpx>